Time;durP1;ratioP1;P1;durP2;ratioP2;P2;SDS_P1;SDS_P2;PMS_P1;PMS_P2;Temp;Humidity;BMP_temperature;BMP_pressure;BME280_temperature;BME280_humidity;BME280_pressure;Samples;Min_cycle;Max_cycle;Signal;HPM_P1;HPM_P2
2021/06/03 00:00:16;;;;;;;1999.90;999.90;;;;;;;13.57;61.54;98915.84;5033441;28;20045;-67
2021/06/03 00:02:44;;;;;;;1999.90;999.90;;;;;;;13.72;61.31;98920.06;5033680;28;20365;-67
2021/06/03 00:05:12;;;;;;;1999.90;999.90;;;;;;;13.33;62.17;98927.50;5031015;28;20052;-66
2021/06/03 00:07:39;;;;;;;1999.90;999.90;;;;;;;13.78;60.79;98919.88;5034107;28;20053;-66
2021/06/03 00:10:07;;;;;;;1999.90;999.90;;;;;;;13.37;62.02;98925.72;5033333;28;20324;-66
2021/06/03 00:12:35;;;;;;;1999.90;999.90;;;;;;;13.74;60.87;98920.56;5033114;28;20064;-67
2021/06/03 00:15:06;;;;;;;1999.90;999.90;;;;;;;14.05;59.79;98924.16;5033262;28;20057;-67
2021/06/03 00:17:33;;;;;;;1999.90;999.90;;;;;;;14.29;59.12;98925.50;5033035;28;20053;-67
2021/06/03 00:19:59;;;;;;;1999.90;999.90;;;;;;;14.45;58.65;98920.97;5032548;28;20056;-67
2021/06/03 00:22:26;;;;;;;1999.90;999.90;;;;;;;14.80;57.68;98926.34;5032060;28;20488;-67
2021/06/03 00:24:53;;;;;;;1999.90;999.90;;;;;;;14.98;56.79;98924.22;5034025;28;20092;-67
2021/06/03 00:27:20;;;;;;;1999.90;999.90;;;;;;;15.03;56.54;98932.34;5032028;28;20046;-67
2021/06/03 00:29:48;;;;;;;1999.90;999.90;;;;;;;15.03;56.48;98931.53;5034137;28;20053;-67
2021/06/03 00:32:15;;;;;;;1999.90;999.90;;;;;;;14.44;57.52;98922.16;5032314;28;20119;-67
2021/06/03 00:34:41;;;;;;;1999.90;999.90;;;;;;;13.95;59.31;98922.59;5032460;28;20512;-67
2021/06/03 00:37:08;;;;;;;1999.90;999.90;;;;;;;13.76;59.57;98925.78;5033834;28;20057;-67
2021/06/03 00:39:35;;;;;;;1999.90;999.90;;;;;;;13.32;61.01;98920.34;5031172;28;20496;-66
2021/06/03 00:42:02;;;;;;;1999.90;999.90;;;;;;;13.34;60.91;98923.63;5029965;28;20045;-67
2021/06/03 00:44:28;;;;;;;1999.90;999.90;;;;;;;12.86;62.67;98914.34;5033138;28;20103;-66
2021/06/03 00:46:55;;;;;;;1999.90;999.90;;;;;;;12.91;62.03;98913.34;5030503;28;20115;-66
2021/06/03 00:49:22;;;;;;;1999.90;999.90;;;;;;;13.15;62.05;98909.25;5026504;28;20053;-66
2021/06/03 00:51:49;;;;;;;1999.90;999.90;;;;;;;13.37;60.58;98913.81;5031286;28;20079;-66
2021/06/03 00:54:15;;;;;;;1999.90;999.90;;;;;;;13.23;61.69;98911.19;5030002;28;20119;-66
2021/06/03 00:56:42;;;;;;;1999.90;999.90;;;;;;;13.49;60.71;98913.13;5033465;28;20053;-66
2021/06/03 00:59:09;;;;;;;1999.90;999.90;;;;;;;13.95;59.50;98910.63;5031941;28;20363;-66
2021/06/03 01:01:35;;;;;;;1999.90;999.90;;;;;;;13.78;60.34;98919.88;5030284;28;20442;-67
2021/06/03 01:04:04;;;;;;;1999.90;999.90;;;;;;;13.39;61.10;98909.53;5033352;28;20389;-67
2021/06/03 01:06:31;;;;;;;1999.90;999.90;;;;;;;13.25;62.49;98911.69;5031393;28;20049;-66
2021/06/03 01:09:10;;;;;;;1999.90;999.90;;;;;;;13.41;62.48;98914.75;5031403;28;20123;-66
2021/06/03 01:11:43;;;;;;;1999.90;999.90;;;;;;;14.17;60.16;98913.16;5031114;28;20045;-67
2021/06/03 01:14:25;;;;;;;1999.90;999.90;;;;;;;14.19;60.10;98907.25;5030797;28;20045;-67
2021/06/03 01:16:55;;;;;;;1999.90;999.90;;;;;;;13.99;60.00;98912.41;5028738;28;20328;-67
2021/06/03 01:19:37;;;;;;;1999.90;999.90;;;;;;;13.42;61.30;98913.63;5032519;28;20146;-66
2021/06/03 01:22:09;;;;;;;1999.90;999.90;;;;;;;12.97;63.63;98912.03;5029687;28;20068;-66
2021/06/03 01:24:41;;;;;;;1999.90;999.90;;;;;;;12.55;64.61;98913.66;5032066;28;20127;-66
2021/06/03 01:27:11;;;;;;;1999.90;999.90;;;;;;;12.84;64.17;98915.81;5032479;28;20099;-66
2021/06/03 01:29:51;;;;;;;1999.90;999.90;;;;;;;12.51;65.11;98913.50;5030387;28;20079;-66
2021/06/03 01:32:20;;;;;;;1999.90;999.90;;;;;;;12.62;65.23;98917.63;5029857;28;20050;-66
2021/06/03 01:34:48;;;;;;;1999.90;999.90;;;;;;;12.79;64.18;98907.66;5032383;28;20057;-66
2021/06/03 01:37:15;;;;;;;1999.90;999.90;;;;;;;12.22;66.53;98926.03;5031111;28;20104;-66
2021/06/03 01:39:44;;;;;;;1999.90;999.90;;;;;;;12.56;65.76;98916.13;5031236;28;20053;-66
2021/06/03 01:42:13;;;;;;;1999.90;999.90;;;;;;;12.53;65.82;98927.88;5030670;28;20050;-66
2021/06/03 01:44:40;;;;;;;1999.90;999.90;;;;;;;12.62;65.45;98925.94;5030988;28;20072;-66
2021/06/03 01:47:08;;;;;;;1999.90;999.90;;;;;;;12.62;65.83;98925.94;5031602;28;20045;-66
2021/06/03 01:49:35;;;;;;;1999.90;999.90;;;;;;;13.39;63.31;98928.97;5031925;28;20049;-66
2021/06/03 01:52:04;;;;;;;1999.90;999.90;;;;;;;13.39;63.47;98926.19;5030783;28;20054;-65
2021/06/03 01:54:31;;;;;;;1999.90;999.90;;;;;;;13.44;63.01;98925.22;5031191;28;20049;-65
2021/06/03 01:57:00;;;;;;;1999.90;999.90;;;;;;;13.85;61.60;98925.75;5031074;28;20105;-65
2021/06/03 01:59:27;;;;;;;1999.90;999.90;;;;;;;14.03;61.02;98935.63;5030510;28;20076;-65
2021/06/03 02:01:54;;;;;;;1999.90;999.90;;;;;;;14.00;61.07;98933.50;5029670;28;20050;-66
2021/06/03 02:04:20;;;;;;;1999.90;999.90;;;;;;;14.16;60.87;98931.00;5030821;28;20041;-66
2021/06/03 02:06:47;;;;;;;1999.90;999.90;;;;;;;14.23;60.81;98924.88;5030762;28;20302;-66
2021/06/03 02:09:14;;;;;;;1999.90;999.90;;;;;;;14.25;61.77;98933.72;5032059;28;20111;-66
2021/06/03 02:11:44;;;;;;;1999.90;999.90;;;;;;;14.19;61.85;98929.50;5029868;28;20405;-66
2021/06/03 02:14:14;;;;;;;1999.90;999.90;;;;;;;13.98;61.87;98935.00;5030930;28;20124;-66
2021/06/03 02:16:48;;;;;;;1999.90;999.90;;;;;;;13.95;62.30;98930.94;5031945;28;20099;-66
2021/06/03 02:19:42;;;;;;;1999.90;999.90;;;;;;;13.69;62.83;98929.06;5030328;28;20056;-66
2021/06/03 02:22:09;;;;;;;1999.90;999.90;;;;;;;13.50;63.27;98932.25;5022726;28;20045;-66
2021/06/03 02:24:37;;;;;;;1999.90;999.90;;;;;;;13.34;63.46;98934.72;5031817;28;20053;-66
2021/06/03 02:27:06;;;;;;;1999.90;999.90;;;;;;;13.35;63.32;98933.59;5030246;28;20052;-66
2021/06/03 02:29:34;;;;;;;1999.90;999.90;;;;;;;13.52;62.70;98929.13;5029547;28;20423;-66
2021/06/03 02:32:02;;;;;;;1999.90;999.90;;;;;;;13.48;63.17;98933.72;5031881;28;20054;-66
2021/06/03 02:34:29;;;;;;;1999.90;999.90;;;;;;;13.53;62.76;98933.53;5028682;28;20041;-66
2021/06/03 02:36:55;;;;;;;1999.90;999.90;;;;;;;13.33;63.94;98935.03;5031085;28;20049;-66
2021/06/03 02:39:23;;;;;;;1999.90;999.90;;;;;;;13.49;63.31;98933.38;5031333;28;20127;-66
2021/06/03 02:41:50;;;;;;;1999.90;999.90;;;;;;;13.31;64.19;98935.34;5030001;28;20049;-66
2021/06/03 02:44:17;;;;;;;1999.90;999.90;;;;;;;13.37;64.36;98941.59;5030073;28;20131;-66
2021/06/03 02:46:43;;;;;;;1999.90;999.90;;;;;;;13.59;63.78;98945.28;5031334;28;20111;-66
2021/06/03 02:49:10;;;;;;;1999.90;999.90;;;;;;;13.55;64.48;98942.34;5028531;28;20378;-66
2021/06/03 02:51:37;;;;;;;1999.90;999.90;;;;;;;13.54;64.65;98949.06;5030857;28;20180;-67
2021/06/03 02:54:04;;;;;;;1999.90;999.90;;;;;;;13.39;64.56;98948.44;5030008;28;20426;-66
2021/06/03 02:56:31;;;;;;;1999.90;999.90;;;;;;;13.25;64.95;98946.94;5030374;28;20115;-66
2021/06/03 02:58:57;;;;;;;1999.90;999.90;;;;;;;12.99;65.91;98940.28;5030713;28;20045;-66
2021/06/03 03:01:24;;;;;;;1999.90;999.90;;;;;;;12.94;65.60;98942.44;5029489;28;20046;-66
2021/06/03 03:03:51;;;;;;;1999.90;999.90;;;;;;;12.92;65.80;98945.53;5030786;28;20042;-66
2021/06/03 03:06:18;;;;;;;1999.90;999.90;;;;;;;13.09;65.44;98943.88;5030936;28;20053;-66
2021/06/03 03:08:45;;;;;;;1999.90;999.90;;;;;;;13.22;65.16;98945.66;5028633;28;20041;-66
2021/06/03 03:11:11;;;;;;;1999.90;999.90;;;;;;;12.86;65.97;98952.38;5029029;28;20050;-66
2021/06/03 03:13:38;;;;;;;1999.90;999.90;;;;;;;13.09;65.39;98952.22;5032358;28;20046;-66
2021/06/03 03:16:05;;;;;;;1999.90;999.90;;;;;;;13.11;65.54;98964.59;5032396;28;20499;-66
2021/06/03 03:18:32;;;;;;;1999.90;999.90;;;;;;;13.16;65.45;98950.56;5034419;28;20049;-66
2021/06/03 03:20:59;;;;;;;1999.90;999.90;;;;;;;12.36;67.86;98961.13;5034420;28;20045;-66
2021/06/03 03:23:25;;;;;;;1999.90;999.90;;;;;;;12.86;66.83;98963.47;5033912;28;20111;-66
2021/06/03 03:25:52;;;;;;;1999.90;999.90;;;;;;;12.20;67.70;98963.53;5033600;28;20049;-66
2021/06/03 03:28:19;;;;;;;1999.90;999.90;;;;;;;12.55;67.61;98960.81;5032962;28;20091;-66
2021/06/03 03:30:47;;;;;;;1999.90;999.90;;;;;;;12.96;66.47;98968.69;5034483;28;20065;-66
2021/06/03 03:33:15;;;;;;;1999.90;999.90;;;;;;;13.07;66.29;98960.03;5034315;28;20042;-66
2021/06/03 03:35:46;;;;;;;1999.90;999.90;;;;;;;13.54;64.83;98966.53;5031058;28;20118;-66
2021/06/03 03:38:18;;;;;;;1999.90;999.90;;;;;;;13.08;65.90;98972.78;5032596;28;20111;-66
2021/06/03 03:40:45;;;;;;;1999.90;999.90;;;;;;;11.80;69.97;98967.94;5033945;28;20045;-66
2021/06/03 03:43:12;;;;;;;1999.90;999.90;;;;;;;12.53;67.99;98966.69;5031114;28;20502;-65
2021/06/03 03:45:39;;;;;;;1999.90;999.90;;;;;;;12.12;70.08;98968.72;5027643;28;20084;-66
2021/06/03 03:48:06;;;;;;;1999.90;999.90;;;;;;;12.36;68.77;98975.00;5033295;28;20053;-66
2021/06/03 03:50:36;;;;;;;1999.90;999.90;;;;;;;13.36;65.74;98959.41;5033527;28;20136;-66
2021/06/03 03:53:04;;;;;;;1999.90;999.90;;;;;;;12.63;67.59;98971.13;5032903;28;20056;-66
2021/06/03 03:55:31;;;;;;;1999.90;999.90;;;;;;;13.47;64.51;98973.75;5032433;28;20084;-66
2021/06/03 03:57:59;;;;;;;1999.90;999.90;;;;;;;12.31;68.35;98971.25;5033160;28;20049;-66
2021/06/03 04:00:29;;;;;;;1999.90;999.90;;;;;;;13.02;67.47;98972.13;5033158;28;20054;-66
2021/06/03 04:02:56;;;;;;;1999.90;999.90;;;;;;;13.83;64.97;98970.56;5033135;28;20091;-66
2021/06/03 04:05:23;;;;;;;1999.90;999.90;;;;;;;14.57;62.82;98973.13;5033084;28;20107;-66
2021/06/03 04:07:49;;;;;;;1999.90;999.90;;;;;;;14.85;61.32;98976.25;5034554;28;20049;-66
2021/06/03 04:10:19;;;;;;;1999.90;999.90;;;;;;;14.21;63.83;98980.03;5032142;28;20071;-66
2021/06/03 04:12:48;;;;;;;1999.90;999.90;;;;;;;13.76;65.11;98983.34;5033380;28;20049;-66
2021/06/03 04:15:15;;;;;;;1999.90;999.90;;;;;;;14.54;62.52;98982.97;5033127;28;20053;-66
2021/06/03 04:17:42;;;;;;;1999.90;999.90;;;;;;;14.52;62.39;98992.81;5032574;28;20053;-66
2021/06/03 04:20:13;;;;;;;1999.90;999.90;;;;;;;14.85;61.47;98994.91;5032176;28;20053;-66
2021/06/03 04:22:40;;;;;;;1999.90;999.90;;;;;;;14.72;62.11;98996.81;5032624;28;20463;-66
2021/06/03 04:25:07;;;;;;;1999.90;999.90;;;;;;;14.00;63.81;98997.47;5031831;28;20049;-66
2021/06/03 04:27:34;;;;;;;1999.90;999.90;;;;;;;14.71;62.94;99001.56;5031525;28;20122;-66
2021/06/03 04:30:01;;;;;;;1999.90;999.90;;;;;;;15.01;61.77;98998.72;5033822;28;20324;-66
2021/06/03 04:32:27;;;;;;;1999.90;999.90;;;;;;;14.73;62.95;99010.38;5030831;28;20049;-66
2021/06/03 04:34:55;;;;;;;1999.90;999.90;;;;;;;15.42;60.18;99008.22;5031252;28;20049;-66
2021/06/03 04:37:21;;;;;;;1999.90;999.90;;;;;;;14.72;62.08;99008.78;5033467;28;20049;-66
2021/06/03 04:39:48;;;;;;;1999.90;999.90;;;;;;;14.97;61.11;99003.34;5032306;28;20103;-66
2021/06/03 04:42:15;;;;;;;1999.90;999.90;;;;;;;14.98;60.88;98999.41;5032750;28;20105;-66
2021/06/03 04:44:41;;;;;;;1999.90;999.90;;;;;;;15.50;60.93;99010.09;5031331;28;20045;-66
2021/06/03 04:47:08;;;;;;;1999.90;999.90;;;;;;;14.64;62.06;99006.84;5029365;28;20050;-66
2021/06/03 04:49:35;;;;;;;1999.90;999.90;;;;;;;14.74;63.32;99012.03;5033185;28;20128;-66
2021/06/03 04:52:25;;;;;;;1999.90;999.90;;;;;;;15.67;60.01;99008.28;5032322;28;20452;-66
2021/06/03 04:54:48;;;;;;;1999.90;999.90;;;;;;;15.00;61.42;99018.56;5030685;28;20103;-66
2021/06/03 04:57:15;;;;;;;1999.90;999.90;;;;;;;14.40;62.91;99024.94;5033018;28;20420;-66
2021/06/03 04:59:41;;;;;;;1999.90;999.90;;;;;;;14.91;61.98;99018.63;5031461;28;20053;-65
2021/06/03 05:02:08;;;;;;;1999.90;999.90;;;;;;;14.67;62.55;99020.09;5030541;28;20049;-66
2021/06/03 05:04:35;;;;;;;1999.90;999.90;;;;;;;14.20;64.42;99014.56;5032632;28;20401;-66
2021/06/03 05:07:02;;;;;;;1999.90;999.90;;;;;;;13.86;65.34;99021.88;5026160;28;20104;-65
2021/06/03 05:09:29;;;;;;;1999.90;999.90;;;;;;;14.51;63.29;99024.56;5031097;28;20084;-66
2021/06/03 05:11:55;;;;;;;1999.90;999.90;;;;;;;14.01;64.59;99017.75;5033050;28;20045;-65
2021/06/03 05:14:23;;;;;;;1999.90;999.90;;;;;;;14.58;62.21;99025.66;5031272;28;20045;-65
2021/06/03 05:16:50;;;;;;;1999.90;999.90;;;;;;;15.65;60.39;99032.91;5032277;28;20076;-66
2021/06/03 05:19:17;;;;;;;1999.90;999.90;;;;;;;14.61;63.53;99032.56;5031853;28;20081;-66
2021/06/03 05:21:43;;;;;;;1999.90;999.90;;;;;;;14.96;62.44;99029.53;5029482;28;20049;-65
2021/06/03 05:24:13;;;;;;;1999.90;999.90;;;;;;;14.84;62.86;99026.69;5032400;28;20041;-66
2021/06/03 05:26:39;;;;;;;1999.90;999.90;;;;;;;14.94;61.95;99031.88;5031129;28;20099;-65
2021/06/03 05:29:07;;;;;;;1999.90;999.90;;;;;;;14.78;62.30;99028.84;5031689;28;20103;-66
2021/06/03 05:31:34;;;;;;;1999.90;999.90;;;;;;;14.33;64.86;99033.00;5032644;28;20095;-65
2021/06/03 05:34:00;;;;;;;1999.90;999.90;;;;;;;14.93;62.76;99036.63;5030944;28;20049;-66
2021/06/03 05:36:27;;;;;;;1999.90;999.90;;;;;;;16.54;59.75;99029.59;5031502;28;20052;-66
2021/06/03 05:38:57;;;;;;;1999.90;999.90;;;;;;;16.76;57.52;99023.88;5033156;28;20049;-66
2021/06/03 05:41:24;;;;;;;1999.90;999.90;;;;;;;16.50;58.54;99023.09;5030750;28;20045;-66
2021/06/03 05:43:51;;;;;;;1999.90;999.90;;;;;;;16.92;56.47;99030.41;5029514;28;20185;-66
2021/06/03 05:46:17;;;;;;;1999.90;999.90;;;;;;;17.72;55.30;99031.56;5031569;28;20057;-66
2021/06/03 05:48:44;;;;;;;1999.90;999.90;;;;;;;18.39;52.20;99035.72;5031991;28;20385;-66
2021/06/03 05:51:11;;;;;;;1999.90;999.90;;;;;;;18.94;52.42;99038.66;5033394;28;20053;-66
2021/06/03 05:53:40;;;;;;;1999.90;999.90;;;;;;;18.73;52.41;99038.97;5031198;28;20118;-66
2021/06/03 05:56:07;;;;;;;1999.90;999.90;;;;;;;17.70;55.24;99047.06;5024780;28;20045;-66
2021/06/03 05:58:33;;;;;;;1999.90;999.90;;;;;;;17.95;53.75;99045.81;5033205;28;20072;-66
2021/06/03 06:01:00;;;;;;;1999.90;999.90;;;;;;;17.03;55.50;99033.53;5031549;28;20100;-66
2021/06/03 06:03:43;;;;;;;1999.90;999.90;;;;;;;16.96;54.19;99044.50;5032033;28;20041;-65
2021/06/03 06:06:32;;;;;;;1999.90;999.90;;;;;;;16.16;58.78;99038.31;5032241;28;20393;-65
2021/06/03 06:09:04;;;;;;;1999.90;999.90;;;;;;;15.71;59.27;99047.47;5030730;28;20431;-65
2021/06/03 06:11:37;;;;;;;1999.90;999.90;;;;;;;16.83;57.42;99052.06;5029238;28;20088;-66
2021/06/03 06:14:07;;;;;;;1999.90;999.90;;;;;;;18.34;54.95;99055.59;5032264;28;20053;-66
2021/06/03 06:16:35;;;;;;;1999.90;999.90;;;;;;;18.88;53.13;99048.53;5031470;28;20050;-66
2021/06/03 06:19:02;;;;;;;1999.90;999.90;;;;;;;19.20;53.03;99049.25;5030815;28;20054;-66
2021/06/03 06:21:33;;;;;;;1999.90;999.90;;;;;;;18.46;53.71;99052.72;5031979;28;20126;-66
2021/06/03 06:24:00;;;;;;;1999.90;999.90;;;;;;;17.95;54.40;99058.97;5031591;28;20042;-66
2021/06/03 06:26:27;;;;;;;1999.90;999.90;;;;;;;18.18;54.09;99064.00;5030356;28;20115;-66
2021/06/03 06:28:55;;;;;;;1999.90;999.90;;;;;;;18.61;52.31;99057.47;5033018;28;20113;-66
2021/06/03 06:31:23;;;;;;;1999.90;999.90;;;;;;;18.76;52.00;99066.25;5031168;28;20069;-65
2021/06/03 06:33:50;;;;;;;1999.90;999.90;;;;;;;19.12;51.35;99067.09;5030757;28;20346;-66
2021/06/03 06:36:17;;;;;;;1999.90;999.90;;;;;;;18.88;51.22;99070.97;5032206;28;20056;-67
2021/06/03 06:38:43;;;;;;;1999.90;999.90;;;;;;;18.80;51.13;99067.13;5030248;28;20346;-67
2021/06/03 06:41:11;;;;;;;1999.90;999.90;;;;;;;19.47;51.37;99071.84;5024452;28;20053;-67
2021/06/03 06:43:38;;;;;;;1999.90;999.90;;;;;;;19.67;51.17;99076.28;5031814;28;20049;-67
2021/06/03 06:46:07;;;;;;;1999.90;999.90;;;;;;;20.01;49.46;99073.78;5031283;28;20058;-67
2021/06/03 06:48:34;;;;;;;1999.90;999.90;;;;;;;19.81;48.30;99080.59;5032583;28;20076;-67
2021/06/03 06:51:02;;;;;;;1999.90;999.90;;;;;;;20.06;46.64;99081.88;5036317;28;20139;-67
2021/06/03 06:53:29;;;;;;;1999.90;999.90;;;;;;;19.81;47.25;99080.59;5034748;28;20083;-67
2021/06/03 06:55:56;;;;;;;1999.90;999.90;;;;;;;19.31;47.79;99080.34;5036015;28;20103;-66
2021/06/03 06:58:26;;;;;;;1999.90;999.90;;;;;;;20.21;46.82;99082.97;5035710;28;20060;-67
2021/06/03 07:00:53;;;;;;;1999.90;999.90;;;;;;;20.10;48.20;99078.34;5035038;28;20480;-66
2021/06/03 07:03:20;;;;;;;1999.90;999.90;;;;;;;20.32;47.27;99082.34;5034804;28;20382;-67
2021/06/03 07:05:47;;;;;;;1999.90;999.90;;;;;;;19.23;51.58;99079.34;5035319;28;20045;-67
2021/06/03 07:08:15;;;;;;;1999.90;999.90;;;;;;;19.30;50.49;99079.50;5035162;28;20080;-66
2021/06/03 07:10:42;;;;;;;1999.90;999.90;;;;;;;19.21;49.25;99078.91;5034784;28;20343;-68
2021/06/03 07:13:10;;;;;;;1999.90;999.90;;;;;;;20.60;46.24;99079.22;5035779;28;20103;-67
2021/06/03 07:15:37;;;;;;;1999.90;999.90;;;;;;;21.53;42.56;99077.06;5033786;28;20122;-67
2021/06/03 07:18:04;;;;;;;1999.90;999.90;;;;;;;19.94;46.13;99084.88;5035694;28;20096;-66
2021/06/03 07:20:31;;;;;;;1999.90;999.90;;;;;;;20.19;42.89;99084.56;5034224;28;20163;-67
2021/06/03 07:23:04;;;;;;;1999.90;999.90;;;;;;;20.58;41.05;99081.63;5035252;28;20088;-66
2021/06/03 07:25:37;;;;;;;1999.90;999.90;;;;;;;21.04;41.32;99077.97;5035658;28;20050;-66
2021/06/03 07:28:05;;;;;;;1999.90;999.90;;;;;;;21.19;43.07;99076.19;5029512;28;20451;-67
2021/06/03 07:30:32;;;;;;;1999.90;999.90;;;;;;;21.22;40.72;99083.84;5034277;28;20041;-67
2021/06/03 07:32:59;;;;;;;1999.90;999.90;;;;;;;20.67;41.19;99082.19;5033746;28;20096;-67
2021/06/03 07:35:28;;;;;;;1999.90;999.90;;;;;;;20.93;41.51;99091.84;5033793;28;20046;-67
2021/06/03 07:37:55;;;;;;;1999.90;999.90;;;;;;;21.18;39.79;99095.03;5036182;28;20099;-66
2021/06/03 07:40:26;;;;;;;1999.90;999.90;;;;;;;21.14;40.92;99084.91;5034116;28;20096;-65
2021/06/03 07:42:52;;;;;;;1999.90;999.90;;;;;;;20.48;43.26;99082.25;5031160;28;20496;-67
2021/06/03 07:45:22;;;;;;;1999.90;999.90;;;;;;;20.98;38.65;99091.53;5035376;28;20126;-66
2021/06/03 07:47:51;;;;;;;1999.90;999.90;;;;;;;21.05;40.54;99082.38;5034047;28;20064;-67
2021/06/03 07:50:19;;;;;;;1999.90;999.90;;;;;;;21.01;43.33;99084.34;5034570;28;20117;-66
2021/06/03 07:52:46;;;;;;;1999.90;999.90;;;;;;;21.26;40.79;99091.16;5034623;28;20046;-67
2021/06/03 07:55:15;;;;;;;1999.90;999.90;;;;;;;21.41;40.06;99091.34;5023077;28;20875;-67
2021/06/03 07:57:44;;;;;;;1999.90;999.90;;;;;;;21.61;40.37;99086.41;5031105;28;20678;-67
2021/06/03 08:00:13;;;;;;;1999.90;999.90;;;;;;;21.15;42.39;99087.34;5030659;28;20092;-66
2021/06/03 08:02:43;;;;;;;1999.90;999.90;;;;;;;19.81;44.67;99083.41;5028944;28;20060;-66
2021/06/03 08:05:12;;;;;;;1999.90;999.90;;;;;;;21.39;40.63;99080.47;5031384;28;20060;-66
2021/06/03 08:07:39;;;;;;;1999.90;999.90;;;;;;;22.39;38.39;99082.91;5031683;28;20353;-66
2021/06/03 08:10:08;;;;;;;1999.90;999.90;;;;;;;21.58;41.86;99089.97;5029026;28;20049;-66
2021/06/03 08:12:35;;;;;;;1999.90;999.90;;;;;;;22.75;39.39;99090.84;5031447;28;20045;-67
2021/06/03 08:15:03;;;;;;;1999.90;999.90;;;;;;;23.38;38.27;99091.72;5031038;28;20054;-65
2021/06/03 08:17:30;;;;;;;1999.90;999.90;;;;;;;22.63;40.18;99097.59;5029981;28;20049;-66
2021/06/03 08:19:57;;;;;;;1999.90;999.90;;;;;;;22.75;37.93;99094.47;5032038;28;20150;-66
2021/06/03 08:22:24;;;;;;;1999.90;999.90;;;;;;;22.82;36.16;99093.72;5029867;28;20103;-66
2021/06/03 08:24:51;;;;;;;1999.90;999.90;;;;;;;22.96;36.44;99095.84;5029375;28;20080;-65
2021/06/03 08:27:17;;;;;;;1999.90;999.90;;;;;;;21.64;38.68;99099.72;5030963;28;20049;-65
2021/06/03 08:29:44;;;;;;;1999.90;999.90;;;;;;;21.73;38.31;99097.41;5029069;28;20045;-66
2021/06/03 08:32:11;;;;;;;1999.90;999.90;;;;;;;21.63;38.43;99087.66;5030869;28;20049;-66
2021/06/03 08:34:38;;;;;;;1999.90;999.90;;;;;;;21.87;40.34;99095.97;5031010;28;20393;-66
2021/06/03 08:37:04;;;;;;;1999.90;999.90;;;;;;;22.40;38.14;99095.75;5029206;28;20123;-66
2021/06/03 08:39:31;;;;;;;1999.90;999.90;;;;;;;23.23;38.98;99095.66;5030881;28;20389;-67
2021/06/03 08:41:58;;;;;;;1999.90;999.90;;;;;;;23.10;38.65;99093.16;5025569;28;20124;-67
2021/06/03 08:44:28;;;;;;;1999.90;999.90;;;;;;;23.93;37.49;99101.28;5026106;28;20048;-66
2021/06/03 08:46:56;;;;;;;1999.90;999.90;;;;;;;25.22;35.01;99095.75;5029111;28;20453;-68
2021/06/03 08:49:23;;;;;;;1999.90;999.90;;;;;;;24.54;35.55;99098.59;5029389;28;20516;-67
2021/06/03 08:51:52;;;;;;;1999.90;999.90;;;;;;;24.78;35.71;99106.28;5024613;28;20107;-66
2021/06/03 08:54:19;;;;;;;1999.90;999.90;;;;;;;25.33;32.29;99101.41;5025374;28;20100;-66
2021/06/03 08:56:46;;;;;;;1999.90;999.90;;;;;;;24.55;34.50;99106.66;5030703;28;20057;-66
2021/06/03 08:59:13;;;;;;;1999.90;999.90;;;;;;;23.01;37.46;99095.47;5027046;28;20483;-66
2021/06/03 09:01:41;;;;;;;1999.90;999.90;;;;;;;24.92;35.22;99102.66;5026652;28;20461;-67
2021/06/03 09:04:08;;;;;;;1999.90;999.90;;;;;;;25.12;35.58;99097.38;5030127;28;20053;-67
2021/06/03 09:06:35;;;;;;;1999.90;999.90;;;;;;;24.91;37.25;99103.88;5025459;28;20077;-66
2021/06/03 09:09:04;;;;;;;1999.90;999.90;;;;;;;24.30;34.82;99100.16;5028622;28;20107;-67
2021/06/03 09:11:32;;;;;;;1999.90;999.90;;;;;;;25.54;34.38;99103.38;5023958;28;20057;-68
2021/06/03 09:14:06;;;;;;;1999.90;999.90;;;;;;;25.35;33.06;99095.34;5027987;28;20060;-67
2021/06/03 09:16:38;;;;;;;1999.90;999.90;;;;;;;25.80;35.46;99095.63;5028944;28;20053;-67
2021/06/03 09:19:13;;;;;;;1999.90;999.90;;;;;;;25.65;31.36;99097.69;5027303;28;20235;-67
2021/06/03 09:21:48;;;;;;;1999.90;999.90;;;;;;;26.58;31.70;99096.41;5030247;28;20053;-66
2021/06/03 09:24:17;;;;;;;1999.90;999.90;;;;;;;27.24;33.14;99101.13;5029363;28;20398;-66
2021/06/03 09:26:52;;;;;;;1999.90;999.90;;;;;;;27.46;30.63;99098.06;5028146;28;20045;-67
2021/06/03 09:29:24;;;;;;;1999.90;999.90;;;;;;;26.93;32.21;99097.38;5027984;28;20146;-66
2021/06/03 09:31:52;;;;;;;1999.90;999.90;;;;;;;26.07;32.21;99095.91;5029309;28;20049;-65
2021/06/03 09:34:21;;;;;;;1999.90;999.90;;;;;;;23.48;39.36;99095.81;5029421;28;20436;-67
2021/06/03 09:36:52;;;;;;;1999.90;999.90;;;;;;;23.94;36.66;99100.06;5029231;28;20049;-67
2021/06/03 09:39:20;;;;;;;1999.90;999.90;;;;;;;24.90;37.04;99088.09;5028974;28;20079;-67
2021/06/03 09:42:05;;;;;;;1999.90;999.90;;;;;;;25.43;33.69;99096.97;5028411;28;20057;-66
2021/06/03 09:44:40;;;;;;;1999.90;999.90;;;;;;;25.53;34.97;99100.97;5027754;28;20438;-68
2021/06/03 09:47:33;;;;;;;1999.90;999.90;;;;;;;25.54;33.23;99097.72;5027242;28;20427;-65
2021/06/03 09:50:00;;;;;;;1999.90;999.90;;;;;;;26.25;31.26;99092.97;5017778;28;20054;-65
2021/06/03 09:52:35;;;;;;;1999.90;999.90;;;;;;;25.98;31.46;99087.84;5028578;28;20445;-66
2021/06/03 09:55:13;;;;;;;1999.90;999.90;;;;;;;27.11;30.57;99087.88;5027217;28;20073;-67
2021/06/03 09:57:44;;;;;;;1999.90;999.90;;;;;;;26.99;31.28;99084.34;5026067;28;20414;-67
2021/06/03 10:00:19;;;;;;;1999.90;999.90;;;;;;;24.92;34.02;99099.84;5020577;28;20060;-65
2021/06/03 10:02:52;;;;;;;1999.90;999.90;;;;;;;24.73;34.23;99095.38;5026768;28;20053;-64
2021/06/03 10:05:22;;;;;;;1999.90;999.90;;;;;;;25.53;31.80;99086.81;5029279;28;20381;-66
2021/06/03 10:08:05;;;;;;;1999.90;999.90;;;;;;;26.48;30.17;99085.94;5028955;28;20054;-67
2021/06/03 10:10:37;;;;;;;1999.90;999.90;;;;;;;26.28;33.21;99086.47;5028115;28;20045;-66
2021/06/03 10:13:06;;;;;;;1999.90;999.90;;;;;;;25.62;35.04;99081.50;5042043;28;20053;-65
2021/06/03 10:15:36;;;;;;;1999.90;999.90;;;;;;;26.29;31.92;99078.78;5029364;28;20053;-66
2021/06/03 10:18:08;;;;;;;1999.90;999.90;;;;;;;25.46;32.47;99088.44;5026920;28;20053;-66
2021/06/03 10:20:41;;;;;;;1999.90;999.90;;;;;;;24.72;34.06;99084.50;5026042;28;20840;-66
2021/06/03 10:23:21;;;;;;;1999.90;999.90;;;;;;;24.93;35.44;99086.50;5027437;28;20512;-67
2021/06/03 10:25:51;;;;;;;1999.90;999.90;;;;;;;24.17;36.38;99083.56;5026799;28;20049;-67
2021/06/03 10:28:19;;;;;;;1999.90;999.90;;;;;;;23.81;35.71;99086.28;5029090;28;20057;-67
2021/06/03 10:30:49;;;;;;;1999.90;999.90;;;;;;;24.61;36.18;99088.13;5028632;28;20057;-67
2021/06/03 10:33:19;;;;;;;1999.90;999.90;;;;;;;25.90;33.38;99074.91;5027203;28;20520;-66
2021/06/03 10:35:49;;;;;;;1999.90;999.90;;;;;;;27.17;30.60;99081.31;5027677;28;20057;-67
2021/06/03 10:38:19;;;;;;;1999.90;999.90;;;;;;;26.39;32.38;99077.09;5028798;28;20087;-65
2021/06/03 10:40:48;;;;;;;1999.90;999.90;;;;;;;25.77;33.41;99076.59;5028112;28;20049;-65
2021/06/03 10:43:16;;;;;;;1999.90;999.90;;;;;;;25.83;33.99;99074.97;5029422;28;20057;-66
2021/06/03 10:45:44;;;;;;;1999.90;999.90;;;;;;;26.67;32.95;99082.56;5027747;28;20092;-66
2021/06/03 10:48:12;;;;;;;1999.90;999.90;;;;;;;27.61;30.23;99081.69;5028374;28;20060;-66
2021/06/03 10:50:45;;;;;;;1999.90;999.90;;;;;;;28.40;29.45;99080.63;5029140;28;20107;-67
2021/06/03 10:53:14;;;;;;;1999.90;999.90;;;;;;;27.62;29.81;99076.81;5027934;28;20057;-66
2021/06/03 10:55:43;;;;;;;1999.90;999.90;;;;;;;25.81;32.47;99080.22;5022889;28;20466;-65
2021/06/03 10:58:13;;;;;;;1999.90;999.90;;;;;;;23.93;35.80;99078.69;5029658;28;20111;-65
2021/06/03 11:00:58;;;;;;;1999.90;999.90;;;;;;;23.95;36.23;99081.91;5027152;28;20123;-66